William R Fairchild International Airport
KCLM : now visible

Airfield :











YOU CAN JOIN US ON...

 
LOGIN :

Register | Disclaimer

   EN    FR    IT 

 









Legend :    VFR   Marginal VFR   IFR   Intensive IFR   Very Intensive IFR
Visi :
Ceiling :
>= 8 km
>= 3000ft
5 to 8 km
1000 to 3000 ft
1500m to 5 km
500 to 1000 ft
800 to 1500m
200 to 500 ft
< 800m
< 200 ft
Symbols :   Thunderstorms  Fog  Heavy snow  Heavy precipitations  Wind > 20 kt







- Airport Elevation : 291 ft
- IATA code : CLM


KCLM - William R Fairchild International

CURRENT METAR :
  • 211653Z AUTO 00000KT 10SM OVC032 16/11 A3013 RMK AO2 SLP203 T01560111

EXPIRED METARs :
  • 211553Z AUTO 22004KT 10SM FEW021 SCT027 OVC035 13/11 A3014 RMK AO2 SLP205 T01330106
  • 211453Z AUTO 23005KT 10SM OVC030 12/10 A3014 RMK AO2 SLP207 T01170100 51003

TAF KCLM
Valid from the 21 at 12:00 until the 22 at 12:00 UTC


211135Z 2112/2212 VRB03KT P6SM SCT030
FM211400 VRB03KT P6SM SCT020 OVC025
FM212200 34005KT P6SM SCT025 OVC035
FM220400 VRB04KT P6SM OVC050
FM220800 28003KT P6SM -RA SCT025 OVC050
No reported NOTAMs for that airfield.



MET'MAP, your aeronautical weather chart ! - Copyright ORBIFLY December 2007 - Disclaimer

ORBIFLY MET'MAP TEAM :

Programming & Development : Alexandra Zaïnal
Concept & Development : Baudouin d'Aumeries
Co-Development & Prog : Marc-Olivier Méhu
Technical & hardware support : Manuel Goepfert

Contact : metmap@orbifly.com




SOURCES & CREDITS :

   NOAA       Earth
Advisory